createdAt,value
2023-03-29T00:00:54.033Z,2.47
2023-03-29T00:03:24.114Z,2.72
2023-03-29T00:05:58.708Z,2.67
2023-03-29T00:08:35.203Z,2.42
2023-03-29T00:11:05.451Z,2.40
2023-03-29T00:13:35.619Z,2.67
2023-03-29T00:16:05.594Z,2.15
2023-03-29T00:18:35.397Z,1.90
2023-03-29T00:21:05.568Z,2.20
2023-03-29T00:23:36.313Z,2.55
2023-03-29T00:26:08.243Z,2.15
2023-03-29T00:28:38.442Z,1.85
2023-03-29T00:31:14.683Z,2.42
2023-03-29T00:33:45.533Z,2.65
2023-03-29T00:36:17.271Z,2.17
2023-03-29T00:38:47.359Z,2.08
2023-03-29T00:41:17.386Z,2.75
2023-03-29T00:44:03.337Z,2.45
2023-03-29T00:46:35.991Z,2.47
2023-03-29T00:49:16.541Z,2.15
2023-03-29T00:51:47.400Z,2.42
2023-03-29T00:54:19.973Z,2.22
2023-03-29T00:56:52.405Z,2.50
2023-03-29T00:59:25.725Z,2.58
2023-03-29T01:02:03.287Z,2.85
2023-03-29T01:04:52.038Z,2.60
2023-03-29T01:07:36.477Z,2.70
2023-03-29T01:10:13.183Z,2.53
2023-03-29T01:12:53.252Z,2.78
2023-03-29T01:15:27.650Z,2.60
2023-03-29T01:17:59.445Z,2.40
2023-03-29T01:20:44.546Z,2.67
2023-03-29T01:23:33.087Z,2.83
2023-03-29T01:26:22.964Z,2.53
2023-03-29T01:29:40.103Z,2.80
2023-03-29T01:32:51.630Z,3.13
2023-03-29T01:35:29.387Z,3.13
2023-03-29T01:38:06.732Z,2.85
2023-03-29T01:40:37.152Z,3.53
2023-03-29T01:43:23.838Z,3.25
2023-03-29T01:46:00.345Z,2.58
2023-03-29T01:48:39.448Z,3.30
2023-03-29T01:51:17.534Z,2.70
2023-03-29T01:53:54.187Z,3.25
2023-03-29T01:56:29.132Z,3.40
2023-03-29T01:59:08.896Z,3.50
2023-03-29T02:01:50.232Z,3.10
2023-03-29T02:04:30.211Z,2.88
2023-03-29T02:07:03.345Z,2.63
2023-03-29T02:09:35.484Z,2.80
2023-03-29T02:12:09.367Z,2.67
2023-03-29T02:14:40.104Z,3.30
2023-03-29T02:17:24.931Z,3.17
2023-03-29T02:22:39.613Z,2.80
2023-03-29T02:25:10.670Z,3.03
2023-03-29T02:27:41.621Z,3.13
2023-03-29T02:30:14.851Z,2.80
2023-03-29T02:32:58.824Z,2.80
2023-03-29T02:35:37.474Z,2.72
2023-03-29T02:38:12.540Z,2.90
2023-03-29T02:40:45.139Z,3.13
2023-03-29T02:43:17.089Z,3.13
2023-03-29T02:45:49.241Z,3.97
2023-03-29T02:48:22.282Z,3.25
2023-03-29T02:50:56.628Z,3.45
2023-03-29T02:53:38.122Z,3.80
2023-03-29T02:56:09.383Z,3.67
2023-03-29T02:58:39.788Z,4.20
2023-03-29T03:01:11.668Z,3.60
2023-03-29T03:03:43.447Z,3.92
2023-03-29T03:06:14.698Z,3.55
2023-03-29T03:08:45.173Z,3.83
2023-03-29T03:11:16.447Z,3.42
2023-03-29T03:13:46.655Z,4.13
2023-03-29T03:16:16.789Z,3.60
2023-03-29T03:18:47.186Z,3.28
2023-03-29T03:21:17.164Z,4.25
2023-03-29T03:23:48.464Z,3.65
2023-03-29T03:26:19.331Z,3.95
2023-03-29T03:28:49.582Z,3.60
2023-03-29T03:31:42.348Z,3.90
2023-03-29T03:34:15.462Z,4.05
2023-03-29T03:37:02.802Z,3.80
2023-03-29T03:39:35.814Z,3.65
2023-03-29T03:42:08.467Z,3.65
2023-03-29T03:44:45.140Z,3.88
2023-03-29T03:47:47.595Z,3.95
2023-03-29T03:50:40.951Z,4.13
2023-03-29T03:53:11.128Z,4.43
2023-03-29T03:56:04.039Z,3.85
2023-03-29T03:58:37.700Z,4.22
2023-03-29T04:01:09.821Z,3.60
2023-03-29T04:03:50.865Z,3.60
2023-03-29T04:06:21.435Z,3.60
2023-03-29T04:09:10.444Z,4.88
2023-03-29T04:11:44.445Z,3.78
2023-03-29T04:14:17.415Z,3.08
2023-03-29T04:17:06.844Z,3.13
2023-03-29T04:20:18.120Z,3.85
2023-03-29T04:22:48.084Z,3.58
2023-03-29T04:25:18.841Z,3.33
2023-03-29T04:27:52.406Z,3.80
2023-03-29T04:30:41.017Z,3.63
2023-03-29T04:33:18.602Z,3.80
2023-03-29T04:35:54.679Z,3.28
2023-03-29T04:38:24.874Z,4.00
2023-03-29T04:40:57.410Z,3.53
2023-03-29T04:43:40.546Z,3.65
2023-03-29T04:46:17.546Z,4.85
2023-03-29T04:49:08.857Z,4.10
2023-03-29T04:51:45.120Z,3.55
2023-03-29T04:54:15.950Z,3.25
2023-03-29T04:57:09.829Z,3.75
2023-03-29T05:00:15.573Z,3.22
2023-03-29T05:03:06.451Z,3.85
2023-03-29T05:05:40.565Z,3.72
2023-03-29T05:08:10.680Z,3.30
2023-03-29T05:10:55.174Z,4.20
2023-03-29T05:13:25.350Z,3.33
2023-03-29T05:15:54.947Z,3.47
2023-03-29T05:18:24.751Z,3.55
2023-03-29T05:20:55.272Z,3.63
2023-03-29T05:23:26.298Z,3.80
2023-03-29T05:26:16.443Z,4.43
2023-03-29T05:28:53.460Z,3.33
2023-03-29T05:31:24.903Z,3.70
2023-03-29T05:33:57.297Z,3.17
2023-03-29T05:36:30.315Z,3.28
2023-03-29T05:39:01.286Z,3.25
2023-03-29T05:41:32.255Z,3.83
2023-03-29T05:44:02.834Z,2.88
2023-03-29T05:46:33.800Z,3.40
2023-03-29T05:49:06.020Z,3.60
2023-03-29T05:51:53.123Z,3.30
2023-03-29T05:54:22.949Z,3.50
2023-03-29T05:56:52.955Z,3.05
2023-03-29T05:59:24.807Z,3.22
2023-03-29T06:01:55.687Z,3.03
2023-03-29T06:04:26.534Z,3.55
2023-03-29T06:07:24.540Z,3.33
2023-03-29T06:10:13.357Z,3.30
2023-03-29T06:12:47.989Z,3.40
2023-03-29T06:15:18.834Z,3.42
2023-03-29T06:17:52.602Z,3.10
2023-03-29T06:20:22.720Z,3.03
2023-03-29T06:22:58.116Z,3.20
2023-03-29T06:25:27.975Z,3.22
2023-03-29T06:27:57.583Z,2.90
2023-03-29T06:30:27.212Z,3.28
2023-03-29T06:33:03.039Z,3.55
2023-03-29T06:36:02.173Z,3.42
2023-03-29T06:38:33.335Z,3.38
2023-03-29T06:41:35.969Z,3.50
2023-03-29T06:44:08.694Z,3.10
2023-03-29T06:46:57.858Z,3.22
2023-03-29T06:49:28.150Z,3.35
2023-03-29T06:52:20.977Z,2.90
2023-03-29T06:54:52.457Z,2.97
2023-03-29T06:57:22.569Z,2.78
2023-03-29T06:59:52.533Z,3.15
2023-03-29T07:02:26.354Z,3.70
2023-03-29T07:04:59.289Z,3.05
2023-03-29T07:07:45.170Z,3.03
2023-03-29T07:10:29.398Z,3.33
2023-03-29T07:13:17.354Z,3.03
2023-03-29T07:15:47.663Z,3.20
2023-03-29T07:18:35.979Z,3.20
2023-03-29T07:21:07.107Z,3.30
2023-03-29T07:23:37.301Z,3.40
2023-03-29T07:26:12.249Z,3.10
2023-03-29T07:28:42.522Z,2.83
2023-03-29T07:31:14.534Z,3.50
2023-03-29T07:33:53.694Z,3.30
2023-03-29T07:36:23.994Z,3.25
2023-03-29T07:38:55.894Z,3.42
2023-03-29T07:41:27.571Z,3.08
2023-03-29T07:44:11.505Z,3.25
2023-03-29T07:46:41.464Z,3.28
2023-03-29T07:49:11.417Z,3.30
2023-03-29T07:51:41.177Z,3.70
2023-03-29T07:54:15.873Z,3.45
2023-03-29T07:57:09.394Z,2.88
2023-03-29T07:59:45.096Z,2.88
2023-03-29T08:02:23.373Z,3.05
2023-03-29T08:04:57.980Z,3.33
2023-03-29T08:07:48.670Z,2.78
2023-03-29T08:10:27.891Z,3.05
2023-03-29T08:13:00.368Z,3.10
2023-03-29T08:15:43.256Z,3.28
2023-03-29T08:18:21.912Z,3.20
2023-03-29T08:20:52.984Z,3.17
2023-03-29T08:23:22.871Z,3.25
2023-03-29T08:26:30.838Z,2.97
2023-03-29T08:29:02.209Z,3.70
2023-03-29T08:31:32.377Z,3.10
2023-03-29T08:34:02.937Z,6.13
2023-03-29T08:36:54.227Z,3.58
2023-03-29T08:39:34.851Z,3.33
2023-03-29T08:42:43.560Z,3.13
2023-03-29T08:45:40.763Z,3.30
2023-03-29T08:48:28.058Z,3.10
2023-03-29T08:51:05.204Z,3.63
2023-03-29T08:54:02.549Z,3.33
2023-03-29T08:57:16.849Z,3.35
2023-03-29T08:59:55.236Z,3.08
2023-03-29T09:02:29.118Z,3.17
2023-03-29T09:05:11.244Z,3.25
2023-03-29T09:07:59.971Z,2.75
2023-03-29T09:10:42.533Z,3.42
2023-03-29T09:14:05.096Z,3.17
2023-03-29T09:16:45.875Z,3.20
2023-03-29T09:19:24.387Z,3.55
2023-03-29T09:22:01.799Z,3.20
2023-03-29T09:24:59.357Z,2.92
2023-03-29T09:27:34.332Z,3.00
2023-03-29T09:30:30.869Z,3.25
2023-03-29T09:33:14.097Z,3.22
2023-03-29T09:36:04.619Z,3.05
2023-03-29T09:38:42.067Z,3.40
2023-03-29T09:41:28.499Z,3.83
2023-03-29T09:44:02.104Z,3.28
2023-03-29T09:46:46.519Z,4.13
2023-03-29T09:49:22.303Z,3.95
2023-03-29T09:51:52.516Z,5.10
2023-03-29T09:54:23.420Z,4.90
2023-03-29T09:57:30.532Z,3.88
2023-03-29T10:00:06.815Z,3.40
2023-03-29T10:02:43.112Z,3.80
2023-03-29T10:05:19.189Z,3.58
2023-03-29T10:07:59.475Z,4.15
2023-03-29T10:10:33.520Z,3.33
2023-03-29T10:13:09.056Z,3.13
2023-03-29T10:15:39.033Z,3.60
2023-03-29T10:18:14.228Z,3.38
2023-03-29T10:20:44.186Z,3.53
2023-03-29T10:23:20.223Z,3.42
2023-03-29T10:25:50.992Z,4.03
2023-03-29T10:28:24.106Z,3.92
2023-03-29T10:30:59.527Z,3.72
2023-03-29T10:33:35.102Z,3.67
2023-03-29T10:36:08.556Z,3.78
2023-03-29T10:38:39.496Z,4.13
2023-03-29T10:41:14.143Z,4.18
2023-03-29T10:43:50.655Z,3.60
2023-03-29T10:46:29.887Z,3.40
2023-03-29T10:49:07.195Z,3.20
2023-03-29T10:51:37.828Z,4.05
2023-03-29T10:54:12.908Z,3.10
2023-03-29T10:56:53.786Z,2.97
2023-03-29T10:59:38.190Z,3.35
2023-03-29T11:02:18.214Z,2.95
2023-03-29T11:04:53.722Z,3.03
2023-03-29T11:07:48.165Z,2.97
2023-03-29T11:10:48.780Z,3.03
2023-03-29T11:13:29.070Z,3.60
2023-03-29T11:16:13.988Z,3.50
2023-03-29T11:19:10.783Z,3.25
2023-03-29T11:21:45.826Z,3.45
2023-03-29T11:24:42.891Z,4.13
2023-03-29T11:27:30.008Z,3.75
2023-03-29T11:30:21.838Z,3.55
2023-03-29T11:32:54.731Z,3.92
2023-03-29T11:35:27.175Z,3.50
2023-03-29T11:38:24.307Z,3.58
2023-03-29T11:41:19.798Z,3.40
2023-03-29T11:43:56.174Z,3.22
2023-03-29T11:46:32.664Z,3.83
2023-03-29T11:49:24.481Z,3.85
2023-03-29T11:51:59.990Z,3.25
2023-03-29T11:54:45.896Z,3.58
2023-03-29T11:57:37.100Z,3.55
2023-03-29T12:00:13.507Z,3.47
2023-03-29T12:02:48.875Z,3.50
2023-03-29T12:05:34.525Z,3.58
2023-03-29T12:08:18.024Z,4.13
2023-03-29T12:10:57.804Z,3.50
2023-03-29T12:13:48.226Z,2.92
2023-03-29T12:16:28.321Z,2.67
2023-03-29T12:19:01.572Z,2.70
2023-03-29T12:21:33.563Z,2.80
2023-03-29T12:24:04.242Z,2.15
2023-03-29T12:26:52.929Z,3.03
2023-03-29T12:29:44.988Z,2.20
2023-03-29T12:32:50.151Z,2.42
2023-03-29T12:35:40.609Z,1.85
2023-03-29T12:38:30.495Z,2.17
2023-03-29T12:41:25.195Z,1.40
2023-03-29T12:44:16.344Z,2.20
2023-03-29T12:47:04.463Z,1.25
2023-03-29T12:49:39.652Z,1.15
2023-03-29T12:52:36.983Z,1.02
2023-03-29T12:55:24.802Z,0.82
2023-03-29T12:58:07.951Z,1.02
2023-03-29T13:00:46.138Z,1.00
2023-03-29T13:06:06.486Z,0.85
2023-03-29T13:08:41.690Z,1.20
2023-03-29T13:11:30.429Z,1.02
2023-03-29T13:14:03.366Z,1.67
2023-03-29T13:16:36.296Z,1.00
2023-03-29T13:19:33.242Z,1.55
2023-03-29T13:24:35.838Z,1.15
2023-03-29T13:27:40.706Z,1.13
2023-03-29T13:30:28.978Z,0.82
2023-03-29T13:33:40.854Z,0.75
2023-03-29T13:36:25.198Z,1.25
2023-03-29T13:38:57.518Z,0.82
2023-03-29T13:41:40.031Z,1.25
2023-03-29T13:44:47.427Z,1.10
2023-03-29T13:47:39.947Z,1.33
2023-03-29T13:59:22.197Z,1.10
2023-03-29T14:01:59.840Z,0.82
2023-03-29T14:04:35.717Z,0.98
2023-03-29T14:07:08.205Z,1.42
2023-03-29T14:09:50.917Z,1.35
2023-03-29T14:12:21.792Z,0.93
2023-03-29T14:14:59.190Z,0.93
2023-03-29T14:17:30.206Z,0.90
2023-03-29T14:20:06.023Z,1.00
2023-03-29T14:22:36.151Z,0.88
2023-03-29T14:25:16.632Z,1.00
2023-03-29T14:27:47.283Z,1.00
2023-03-29T14:30:29.025Z,1.10
2023-03-29T14:32:58.891Z,1.02
2023-03-29T14:35:32.546Z,1.15
2023-03-29T14:38:03.436Z,1.13
2023-03-29T14:40:34.906Z,1.02
2023-03-29T14:43:09.387Z,1.40
2023-03-29T14:45:39.612Z,1.23
2023-03-29T14:48:13.707Z,1.45
2023-03-29T14:50:45.225Z,1.02
2023-03-29T14:53:23.364Z,1.35
2023-03-29T14:55:54.959Z,1.08
2023-03-29T14:58:47.738Z,1.13
2023-03-29T15:01:23.371Z,0.95
2023-03-29T15:04:10.284Z,1.10
2023-03-29T15:06:42.863Z,1.00
2023-03-29T15:09:22.032Z,1.02
2023-03-29T15:11:57.363Z,0.93
2023-03-29T15:14:29.932Z,0.95
2023-03-29T15:17:05.424Z,0.82
2023-03-29T15:19:35.665Z,1.55
2023-03-29T15:22:12.264Z,1.02
2023-03-29T15:24:49.387Z,1.00
2023-03-29T15:27:22.191Z,0.98
2023-03-29T15:30:03.760Z,0.90
2023-03-29T15:32:38.298Z,0.90
2023-03-29T15:35:11.708Z,1.10
2023-03-29T15:37:41.998Z,0.95
2023-03-29T15:40:18.444Z,0.82
2023-03-29T15:42:48.295Z,0.95
2023-03-29T15:45:20.334Z,1.10
2023-03-29T15:47:50.593Z,1.13
2023-03-29T15:50:20.404Z,1.30
2023-03-29T15:52:50.024Z,1.05
2023-03-29T15:55:19.876Z,1.17
2023-03-29T15:57:50.644Z,2.35
2023-03-29T16:00:23.627Z,1.88
2023-03-29T16:02:53.941Z,1.13
2023-03-29T16:05:23.779Z,1.25
2023-03-29T16:07:53.361Z,1.63
2023-03-29T16:10:23.416Z,1.42
2023-03-29T16:12:53.186Z,1.67
2023-03-29T16:15:25.333Z,1.25
2023-03-29T16:17:55.347Z,1.60
2023-03-29T16:20:25.391Z,1.60
2023-03-29T16:22:55.386Z,1.52
2023-03-29T16:25:25.745Z,1.60
2023-03-29T16:27:55.651Z,1.60
2023-03-29T16:30:26.081Z,1.40
2023-03-29T16:32:56.092Z,1.35
2023-03-29T16:35:33.241Z,1.33
2023-03-29T16:38:03.334Z,1.20
2023-03-29T16:40:35.335Z,1.17
2023-03-29T16:43:05.863Z,1.20
2023-03-29T16:45:35.696Z,1.65
2023-03-29T16:48:06.197Z,1.65
2023-03-29T16:50:36.245Z,1.55
2023-03-29T16:53:06.087Z,1.55
2023-03-29T16:55:36.132Z,1.42
2023-03-29T16:58:07.976Z,1.25
2023-03-29T17:00:37.806Z,1.80
2023-03-29T17:03:07.944Z,1.67
2023-03-29T17:05:43.376Z,1.70
2023-03-29T17:08:13.121Z,1.10
2023-03-29T17:10:43.533Z,0.85
2023-03-29T17:13:14.270Z,0.63
2023-03-29T17:15:44.337Z,0.80
2023-03-29T17:18:15.246Z,0.80
2023-03-29T17:20:45.321Z,0.70
2023-03-29T17:23:15.238Z,0.80
2023-03-29T17:25:45.128Z,0.80
2023-03-29T17:28:15.322Z,0.73
2023-03-29T17:30:47.466Z,0.93
2023-03-29T17:33:19.147Z,1.02
2023-03-29T17:39:30.030Z,0.90
2023-03-29T17:41:59.989Z,1.17
2023-03-29T17:44:29.619Z,1.33
2023-03-29T17:46:59.286Z,1.02
2023-03-29T17:49:29.132Z,0.73
2023-03-29T17:51:58.991Z,0.68
2023-03-29T17:54:28.884Z,0.32
2023-03-29T17:56:58.510Z,0.63
2023-03-29T17:59:28.310Z,0.88
2023-03-29T18:01:58.564Z,0.50
2023-03-29T18:04:28.373Z,0.70
2023-03-29T18:06:58.156Z,0.95
2023-03-29T18:09:30.702Z,1.23
2023-03-29T18:12:00.871Z,0.82
2023-03-29T18:14:30.554Z,0.70
2023-03-29T18:17:00.358Z,0.70
2023-03-29T18:19:30.121Z,0.80
2023-03-29T18:21:59.982Z,0.60
2023-03-29T18:24:29.607Z,0.70
2023-03-29T18:26:59.433Z,0.60
2023-03-29T18:29:29.343Z,0.70
2023-03-29T18:32:03.824Z,0.80
2023-03-29T18:34:34.533Z,0.95
2023-03-29T18:37:05.118Z,0.70
2023-03-29T18:39:35.793Z,0.88
2023-03-29T18:42:05.697Z,1.40
2023-03-29T18:44:35.496Z,2.03
2023-03-29T18:47:05.388Z,4.80
2023-03-29T18:49:35.481Z,4.95
2023-03-29T18:52:06.927Z,1.55
2023-03-29T18:54:36.905Z,0.90
2023-03-29T18:57:06.849Z,1.00
2023-03-29T18:59:37.719Z,1.20
2023-03-29T19:02:08.097Z,1.00
2023-03-29T19:04:38.825Z,0.95
2023-03-29T19:07:10.072Z,1.10
2023-03-29T19:09:39.868Z,0.82
2023-03-29T19:12:09.983Z,0.95
2023-03-29T19:14:39.820Z,0.90
2023-03-29T19:17:09.632Z,1.02
2023-03-29T19:19:41.230Z,1.00
2023-03-29T19:22:10.883Z,1.00
2023-03-29T19:24:41.291Z,1.13
2023-03-29T19:27:12.673Z,0.85
2023-03-29T19:29:42.867Z,0.90
2023-03-29T19:32:12.699Z,1.15
2023-03-29T19:34:42.602Z,1.10
2023-03-29T19:37:12.844Z,0.93
2023-03-29T19:39:42.702Z,0.93
2023-03-29T19:42:12.770Z,0.90
2023-03-29T19:44:43.664Z,0.93
2023-03-29T19:47:13.590Z,1.10
2023-03-29T19:49:44.269Z,1.10
2023-03-29T19:52:14.319Z,0.88
2023-03-29T19:54:43.954Z,0.95
2023-03-29T19:57:13.634Z,0.82
2023-03-29T19:59:44.223Z,1.15
2023-03-29T20:02:14.428Z,1.38
2023-03-29T20:04:44.448Z,1.50
2023-03-29T20:07:14.217Z,1.10
2023-03-29T20:09:45.301Z,1.05
2023-03-29T20:12:15.292Z,0.85
2023-03-29T20:14:44.910Z,0.80
2023-03-29T20:17:14.689Z,0.63
2023-03-29T20:19:46.232Z,0.63
2023-03-29T20:22:16.045Z,0.65
2023-03-29T20:24:46.597Z,0.82
2023-03-29T20:27:16.957Z,0.70
2023-03-29T20:29:47.054Z,0.73
2023-03-29T20:32:17.400Z,0.45
2023-03-29T20:34:47.380Z,0.75
2023-03-29T20:37:16.958Z,0.52
2023-03-29T20:39:46.744Z,0.50
2023-03-29T20:42:16.998Z,0.43
2023-03-29T20:44:51.691Z,0.70
2023-03-29T20:47:22.357Z,0.63
2023-03-29T20:49:55.380Z,1.15
2023-03-29T20:52:26.159Z,1.20
2023-03-29T20:54:56.043Z,0.75
2023-03-29T20:57:27.117Z,1.13
2023-03-29T20:59:57.940Z,0.82
2023-03-29T21:02:28.531Z,0.52
2023-03-29T21:05:01.484Z,0.57
2023-03-29T21:07:31.608Z,0.45
2023-03-29T21:10:02.287Z,0.75
2023-03-29T21:12:32.645Z,1.00
2023-03-29T21:15:03.571Z,0.80
2023-03-29T21:17:33.467Z,0.73
2023-03-29T21:20:03.956Z,0.75
2023-03-29T21:22:35.291Z,0.63
2023-03-29T21:25:05.526Z,0.52
2023-03-29T21:34:58.128Z,1.05
2023-03-29T21:37:34.380Z,1.00
2023-03-29T21:40:08.113Z,0.63
2023-03-29T21:42:38.346Z,0.73
2023-03-29T21:45:08.742Z,1.45
2023-03-29T21:47:38.833Z,0.73
2023-03-29T21:50:09.230Z,1.17
2023-03-29T21:52:39.315Z,1.75
2023-03-29T21:55:09.898Z,0.93
2023-03-29T21:57:39.894Z,0.70
2023-03-29T22:00:12.356Z,0.80
2023-03-29T22:02:43.643Z,0.70
2023-03-29T22:05:14.025Z,0.63
2023-03-29T22:07:44.088Z,1.50
2023-03-29T22:10:14.420Z,1.13
2023-03-29T22:12:44.801Z,1.10
2023-03-29T22:15:14.933Z,0.80
2023-03-29T22:17:44.876Z,1.55
2023-03-29T22:20:15.752Z,0.85
2023-03-29T22:22:53.292Z,0.60
2023-03-29T22:25:24.404Z,0.73
2023-03-29T22:27:54.425Z,1.00
2023-03-29T22:30:24.441Z,0.80
2023-03-29T22:32:54.350Z,0.93
2023-03-29T22:35:24.711Z,1.13
2023-03-29T22:37:54.749Z,0.63
2023-03-29T22:40:24.628Z,0.63
2023-03-29T22:42:54.225Z,0.60
2023-03-29T22:45:23.834Z,1.10
2023-03-29T22:47:54.028Z,1.10
2023-03-29T22:50:24.113Z,0.80
2023-03-29T22:52:53.729Z,0.70
2023-03-29T22:55:23.506Z,0.60
2023-03-29T22:57:53.886Z,0.35
2023-03-29T23:00:24.237Z,0.52
2023-03-29T23:02:54.228Z,0.85
2023-03-29T23:05:23.880Z,0.90
2023-03-29T23:07:53.736Z,4.15
2023-03-29T23:10:23.468Z,0.70
2023-03-29T23:12:53.215Z,0.80
2023-03-29T23:15:23.988Z,0.70
2023-03-29T23:17:57.499Z,0.60
2023-03-29T23:20:27.374Z,1.45
2023-03-29T23:22:57.453Z,1.30
2023-03-29T23:25:27.895Z,0.80
2023-03-29T23:27:58.600Z,1.33
2023-03-29T23:30:29.159Z,1.23
2023-03-29T23:33:01.246Z,0.98
2023-03-29T23:38:00.968Z,1.02
2023-03-29T23:40:30.844Z,2.03
2023-03-29T23:43:00.563Z,2.03
2023-03-29T23:45:30.455Z,1.80
2023-03-29T23:48:00.281Z,1.70
2023-03-29T23:50:31.122Z,1.02
2023-03-29T23:53:00.912Z,1.73
2023-03-29T23:55:30.692Z,1.60
2023-03-29T23:58:00.645Z,1.30
